createdAt,value
2019-01-23T00:00:42.253Z,-5.71
2019-01-23T00:03:11.959Z,-5.66
2019-01-23T00:05:41.524Z,-5.63
2019-01-23T00:08:11.250Z,-5.61
2019-01-23T00:10:40.837Z,-5.60
2019-01-23T00:13:10.445Z,-5.58
2019-01-23T00:15:40.036Z,-5.54
2019-01-23T00:18:09.768Z,-5.52
2019-01-23T00:20:39.355Z,-5.46
2019-01-23T00:23:08.942Z,-5.44
2019-01-23T00:25:38.520Z,-5.43
2019-01-23T00:28:08.120Z,-5.45
2019-01-23T00:30:37.787Z,-5.49
2019-01-23T00:33:07.393Z,-5.50
2019-01-23T00:35:36.980Z,-5.51
2019-01-23T00:38:06.931Z,-5.48
2019-01-23T00:40:36.520Z,-5.44
2019-01-23T00:43:06.366Z,-5.45
2019-01-23T00:45:35.956Z,-5.43
2019-01-23T00:48:05.992Z,-5.43
2019-01-23T00:50:35.574Z,-5.44
2019-01-23T00:53:05.358Z,-5.43
2019-01-23T00:55:34.944Z,-5.43
2019-01-23T00:58:04.818Z,-5.44
2019-01-23T01:00:34.469Z,-5.47
2019-01-23T01:03:04.331Z,-5.46
2019-01-23T01:05:33.985Z,-5.45
2019-01-23T01:08:03.735Z,-5.47
2019-01-23T01:10:33.785Z,-5.47
2019-01-23T01:13:03.408Z,-5.46
2019-01-23T01:15:32.160Z,-5.46
2019-01-23T01:18:01.837Z,-5.47
2019-01-23T01:20:30.583Z,-5.50
2019-01-23T01:23:00.184Z,-5.53
2019-01-23T01:25:28.934Z,-5.57
2019-01-23T01:27:58.537Z,-5.58
2019-01-23T01:30:27.292Z,-5.59
2019-01-23T01:32:56.101Z,-5.60
2019-01-23T01:35:24.867Z,-5.59
2019-01-23T01:37:54.450Z,-5.59
2019-01-23T01:40:24.041Z,-5.60
2019-01-23T01:42:53.657Z,-5.58
2019-01-23T01:45:23.287Z,-5.58
2019-01-23T01:47:52.931Z,-5.57
2019-01-23T01:50:21.772Z,-5.54
2019-01-23T01:52:51.414Z,-5.50
2019-01-23T01:55:20.262Z,-5.51
2019-01-23T01:57:49.377Z,-5.53
2019-01-23T02:00:22.336Z,-5.56
2019-01-23T02:02:50.904Z,-5.53
2019-01-23T02:05:21.257Z,-5.53
2019-01-23T02:07:50.177Z,-5.53
2019-01-23T02:10:20.841Z,-5.53
2019-01-23T02:12:49.872Z,-5.51
2019-01-23T02:15:18.947Z,-5.52
2019-01-23T02:17:48.497Z,-5.55
2019-01-23T02:20:24.246Z,-5.57
2019-01-23T02:22:53.142Z,-5.57
2019-01-23T02:25:22.748Z,-5.55
2019-01-23T02:27:51.969Z,-5.51
2019-01-23T02:30:22.854Z,-5.47
2019-01-23T02:32:51.602Z,-5.44
2019-01-23T02:35:20.529Z,-5.41
2019-01-23T02:37:49.251Z,-5.37
2019-01-23T02:40:21.102Z,-5.32
2019-01-23T02:42:50.796Z,-5.30
2019-01-23T02:45:20.670Z,-5.30
2019-01-23T02:47:49.447Z,-5.28
2019-01-23T02:50:18.277Z,-5.28
2019-01-23T02:52:47.829Z,-5.28
2019-01-23T02:55:16.685Z,-5.27
2019-01-23T02:57:46.282Z,-5.26
2019-01-23T03:00:17.106Z,-5.29
2019-01-23T03:02:46.517Z,-5.29
2019-01-23T03:05:17.428Z,-5.27
2019-01-23T03:07:46.431Z,-5.27
2019-01-23T03:10:19.588Z,-5.29
2019-01-23T03:12:48.552Z,-5.26
2019-01-23T03:15:17.960Z,-5.24
2019-01-23T03:17:47.790Z,-5.27
2019-01-23T03:20:17.976Z,-5.27
2019-01-23T03:22:47.706Z,-5.26
2019-01-23T03:25:16.727Z,-5.30
2019-01-23T03:27:45.499Z,-5.34
2019-01-23T03:30:16.903Z,-5.39
2019-01-23T03:32:45.868Z,-5.42
2019-01-23T03:35:14.622Z,-5.47
2019-01-23T03:37:43.489Z,-5.45
2019-01-23T03:40:18.429Z,-5.40
2019-01-23T03:42:47.244Z,-5.40
2019-01-23T03:45:17.148Z,-5.38
2019-01-23T03:47:45.938Z,-5.39
2019-01-23T03:50:16.737Z,-5.38
2019-01-23T03:52:46.377Z,-5.35
2019-01-23T03:55:18.489Z,-5.38
2019-01-23T03:57:47.383Z,-5.40
2019-01-23T04:00:21.934Z,-5.42
2019-01-23T04:02:53.591Z,-5.44
2019-01-23T04:05:22.402Z,-5.46
2019-01-23T04:07:51.587Z,-5.46
2019-01-23T04:10:22.248Z,-5.47
2019-01-23T04:12:51.756Z,-5.48
2019-01-23T04:15:20.654Z,-5.50
2019-01-23T04:17:49.847Z,-5.54
2019-01-23T04:20:20.573Z,-5.54
2019-01-23T04:22:49.351Z,-5.53
2019-01-23T04:25:19.184Z,-5.52
2019-01-23T04:27:47.943Z,-5.52
2019-01-23T04:30:23.707Z,-5.55
2019-01-23T04:32:52.491Z,-5.52
2019-01-23T04:35:22.303Z,-5.52
2019-01-23T04:37:51.110Z,-5.52
2019-01-23T04:40:20.712Z,-5.51
2019-01-23T04:42:50.270Z,-5.46
2019-01-23T04:45:20.141Z,-5.44
2019-01-23T04:47:49.124Z,-5.41
2019-01-23T04:50:18.767Z,-5.38
2019-01-23T04:53:01.569Z,-5.37
2019-01-23T04:55:30.583Z,-5.33
2019-01-23T04:57:59.357Z,-5.33
2019-01-23T05:00:29.910Z,-5.38
2019-01-23T05:02:58.748Z,-5.42
2019-01-23T05:05:28.614Z,-5.46
2019-01-23T05:07:58.390Z,-5.54
2019-01-23T05:10:28.052Z,-5.64
2019-01-23T05:12:57.636Z,-5.71
2019-01-23T05:15:26.403Z,-5.78
2019-01-23T05:17:55.180Z,-5.85
2019-01-23T05:20:23.951Z,-5.89
2019-01-23T05:22:52.748Z,-5.93
2019-01-23T05:25:21.597Z,-5.97
2019-01-23T05:27:50.374Z,-6.05
2019-01-23T05:30:21.596Z,-6.08
2019-01-23T05:32:50.432Z,-6.08
2019-01-23T05:35:19.320Z,-6.07
2019-01-23T05:37:48.565Z,-6.09
2019-01-23T05:40:17.546Z,-6.13
2019-01-23T05:42:46.314Z,-6.15
2019-01-23T05:45:15.584Z,-6.13
2019-01-23T05:47:44.358Z,-6.08
2019-01-23T05:50:15.766Z,-6.06
2019-01-23T05:52:44.670Z,-6.04
2019-01-23T05:55:14.115Z,-6.01
2019-01-23T05:57:42.917Z,-5.97
2019-01-23T06:00:15.197Z,-5.99
2019-01-23T06:02:43.949Z,-6.03
2019-01-23T06:05:14.431Z,-6.04
2019-01-23T06:07:43.289Z,-6.06
2019-01-23T06:10:12.231Z,-6.04
2019-01-23T06:12:41.063Z,-6.06
2019-01-23T06:15:14.589Z,-6.12
2019-01-23T06:17:43.476Z,-6.15
2019-01-23T06:20:15.669Z,-6.19
2019-01-23T06:22:44.781Z,-6.19
2019-01-23T06:25:14.084Z,-6.15
2019-01-23T06:27:42.911Z,-6.14
2019-01-23T06:30:14.898Z,-6.15
2019-01-23T06:32:43.791Z,-6.16
2019-01-23T06:35:12.781Z,-6.17
2019-01-23T06:37:41.746Z,-6.13
2019-01-23T06:40:12.459Z,-6.10
2019-01-23T06:42:41.252Z,-6.08
2019-01-23T06:45:17.343Z,-6.07
2019-01-23T06:47:47.927Z,-6.08
2019-01-23T06:50:20.116Z,-6.08
2019-01-23T06:52:49.909Z,-6.08
2019-01-23T06:55:19.930Z,-6.07
2019-01-23T06:57:49.587Z,-6.09
2019-01-23T07:00:24.527Z,-6.07
2019-01-23T07:02:54.248Z,-6.03
2019-01-23T07:05:25.713Z,-5.98
2019-01-23T07:07:55.321Z,-5.93
2019-01-23T07:10:26.414Z,-5.89
2019-01-23T07:12:56.079Z,-5.88
2019-01-23T07:15:25.760Z,-5.88
2019-01-23T07:17:55.369Z,-5.83
2019-01-23T07:20:26.384Z,-5.80
2019-01-23T07:22:56.114Z,-5.78
2019-01-23T07:25:26.172Z,-5.77
2019-01-23T07:27:55.744Z,-5.74
2019-01-23T07:30:32.855Z,-5.69
2019-01-23T07:33:02.437Z,-5.67
2019-01-23T07:35:32.100Z,-5.61
2019-01-23T07:38:01.777Z,-5.60
2019-01-23T07:40:31.370Z,-5.59
2019-01-23T07:43:00.944Z,-5.58
2019-01-23T07:45:30.718Z,-5.57
2019-01-23T07:48:00.296Z,-5.56
2019-01-23T07:50:29.871Z,-5.51
2019-01-23T07:52:59.749Z,-5.51
2019-01-23T07:55:29.408Z,-5.49
2019-01-23T07:57:58.965Z,-5.46
2019-01-23T08:00:31.605Z,-5.43
2019-01-23T08:03:00.990Z,-5.42
2019-01-23T08:05:30.588Z,-5.39
2019-01-23T08:08:00.172Z,-5.39
2019-01-23T08:10:29.796Z,-5.33
2019-01-23T08:12:59.444Z,-5.25
2019-01-23T08:15:32.892Z,-5.23
2019-01-23T08:18:02.581Z,-5.24
2019-01-23T08:20:32.214Z,-5.18
2019-01-23T08:23:02.335Z,-5.12
2019-01-23T08:25:32.024Z,-5.06
2019-01-23T08:28:01.655Z,-5.08
2019-01-23T08:30:38.337Z,-5.11
2019-01-23T08:33:02.694Z,-5.07
2019-01-23T08:35:32.243Z,-5.01
2019-01-23T08:38:02.203Z,-4.98
2019-01-23T08:40:31.746Z,-4.99
2019-01-23T08:43:01.435Z,-5.02
2019-01-23T08:45:31.437Z,-5.02
2019-01-23T08:48:01.320Z,-5.01
2019-01-23T08:50:40.153Z,-5.02
2019-01-23T08:53:09.766Z,-5.02
2019-01-23T08:55:39.323Z,-5.05
2019-01-23T08:58:09.265Z,-5.05
2019-01-23T09:00:45.593Z,-5.04
2019-01-23T09:03:10.263Z,-5.00
2019-01-23T09:05:39.852Z,-4.92
2019-01-23T09:08:09.674Z,-4.76
2019-01-23T09:10:39.362Z,-4.58
2019-01-23T09:13:08.962Z,-4.46
2019-01-23T09:15:38.513Z,-4.38
2019-01-23T09:18:08.684Z,-4.24
2019-01-23T09:20:38.336Z,-4.15
2019-01-23T09:23:07.967Z,-4.14
2019-01-23T09:25:37.526Z,-4.13
2019-01-23T09:28:07.314Z,-4.04
2019-01-23T09:30:52.621Z,-3.91
2019-01-23T09:33:29.720Z,-3.82
2019-01-23T09:36:21.611Z,-3.66
2019-01-23T09:39:01.537Z,-3.44
2019-01-23T09:41:47.861Z,-3.34
2019-01-23T09:45:02.994Z,-3.40
2019-01-23T09:47:58.371Z,-3.58
2019-01-23T09:50:50.249Z,-3.84
2019-01-23T09:53:27.227Z,-4.04
2019-01-23T09:55:57.162Z,-4.07
2019-01-23T09:58:26.728Z,-3.69
2019-01-23T10:00:59.895Z,-3.14
2019-01-23T10:03:27.890Z,-2.58
2019-01-23T10:05:57.519Z,-2.30
2019-01-23T10:08:27.090Z,-2.33
2019-01-23T10:10:56.769Z,-2.62
2019-01-23T10:13:26.312Z,-2.93
2019-01-23T10:15:56.474Z,-3.18
2019-01-23T10:18:26.170Z,-3.36
2019-01-23T10:20:55.722Z,-3.29
2019-01-23T10:23:25.268Z,-3.19
2019-01-23T10:25:54.842Z,-3.21
2019-01-23T10:28:24.395Z,-3.05
2019-01-23T10:30:53.942Z,-2.92
2019-01-23T10:33:23.695Z,-2.70
2019-01-23T10:35:53.244Z,-2.46
2019-01-23T10:38:22.793Z,-2.45
2019-01-23T10:40:52.510Z,-2.55
2019-01-23T10:43:22.060Z,-2.75
2019-01-23T10:45:51.687Z,-2.96
2019-01-23T10:48:21.340Z,-3.07
2019-01-23T10:50:50.886Z,-3.20
2019-01-23T10:53:20.441Z,-3.20
2019-01-23T10:55:50.156Z,-3.21
2019-01-23T10:58:19.885Z,-3.28
2019-01-23T11:00:49.431Z,-3.32
2019-01-23T11:03:19.084Z,-3.31
2019-01-23T11:05:48.645Z,-3.23
2019-01-23T11:08:18.198Z,-3.15
2019-01-23T11:10:47.776Z,-3.08
2019-01-23T11:13:17.324Z,-3.02
2019-01-23T11:15:46.871Z,-2.92
2019-01-23T11:18:16.480Z,-2.82
2019-01-23T11:20:46.020Z,-2.74
2019-01-23T11:23:15.588Z,-2.73
2019-01-23T11:25:45.226Z,-2.74
2019-01-23T11:28:14.809Z,-2.86
2019-01-23T11:30:44.412Z,-3.02
2019-01-23T11:33:14.325Z,-3.20
2019-01-23T11:35:43.875Z,-3.35
2019-01-23T11:38:13.503Z,-3.50
2019-01-23T11:40:43.291Z,-3.60
2019-01-23T11:43:12.838Z,-3.66
2019-01-23T11:45:42.479Z,-3.77
2019-01-23T11:48:12.026Z,-3.85
2019-01-23T11:50:41.587Z,-3.85
2019-01-23T11:53:12.017Z,-3.80
2019-01-23T11:55:43.250Z,-3.79
2019-01-23T11:58:13.215Z,-3.73
2019-01-23T12:00:42.912Z,-3.72
2019-01-23T12:03:12.467Z,-3.76
2019-01-23T12:05:42.176Z,-3.84
2019-01-23T12:08:11.726Z,-3.86
2019-01-23T12:10:41.304Z,-3.84
2019-01-23T12:13:10.994Z,-3.75
2019-01-23T12:15:41.122Z,-3.73
2019-01-23T12:18:10.930Z,-3.69
2019-01-23T12:20:40.471Z,-3.63
2019-01-23T12:23:10.224Z,-3.56
2019-01-23T12:25:39.767Z,-3.58
2019-01-23T12:28:09.315Z,-3.58
2019-01-23T12:30:38.957Z,-3.56
2019-01-23T12:33:08.513Z,-3.58
2019-01-23T12:35:38.082Z,-3.62
2019-01-23T12:38:07.626Z,-3.62
2019-01-23T12:40:37.182Z,-3.62
2019-01-23T12:43:06.824Z,-3.57
2019-01-23T12:45:36.442Z,-3.63
2019-01-23T12:48:06.146Z,-3.76
2019-01-23T12:50:35.895Z,-3.87
2019-01-23T12:53:05.701Z,-3.91
2019-01-23T12:55:35.252Z,-3.93
2019-01-23T12:58:07.874Z,-3.94
2019-01-23T13:00:37.780Z,-4.04
2019-01-23T13:03:07.406Z,-4.17
2019-01-23T13:05:37.041Z,-4.29
2019-01-23T13:08:06.741Z,-4.37
2019-01-23T13:10:36.309Z,-4.38
2019-01-23T13:13:07.196Z,-4.40
2019-01-23T13:15:36.804Z,-4.43
2019-01-23T13:18:06.446Z,-4.42
2019-01-23T13:20:36.019Z,-4.42
2019-01-23T13:23:05.833Z,-4.44
2019-01-23T13:25:35.382Z,-4.48
2019-01-23T13:28:05.479Z,-4.49
2019-01-23T13:30:35.021Z,-4.45
2019-01-23T13:33:04.750Z,-4.42
2019-01-23T13:35:37.734Z,-4.42
2019-01-23T13:38:11.567Z,-4.46
2019-01-23T13:40:41.551Z,-4.45
2019-01-23T13:43:11.113Z,-4.43
2019-01-23T13:45:41.791Z,-4.45
2019-01-23T13:48:11.843Z,-4.55
2019-01-23T13:50:41.381Z,-4.61
2019-01-23T13:53:11.050Z,-4.58
2019-01-23T13:55:40.675Z,-4.62
2019-01-23T13:58:10.390Z,-4.74
2019-01-23T14:00:42.048Z,-4.91
2019-01-23T14:03:11.664Z,-5.09
2019-01-23T14:05:41.269Z,-5.21
2019-01-23T14:08:11.288Z,-5.29
2019-01-23T14:10:40.899Z,-5.39
2019-01-23T14:13:10.786Z,-5.44
2019-01-23T14:15:41.424Z,-5.45
2019-01-23T14:18:11.078Z,-5.47
2019-01-23T14:20:40.641Z,-5.43
2019-01-23T14:23:10.213Z,-5.40
2019-01-23T14:25:39.804Z,-5.34
2019-01-23T14:28:09.619Z,-5.29
2019-01-23T14:30:42.421Z,-5.24
2019-01-23T14:33:12.158Z,-5.21
2019-01-23T14:35:41.854Z,-5.17
2019-01-23T14:38:11.667Z,-5.17
2019-01-23T14:40:41.253Z,-5.22
2019-01-23T14:43:10.846Z,-5.25
2019-01-23T14:45:40.685Z,-5.25
2019-01-23T14:48:10.260Z,-5.27
2019-01-23T14:50:39.920Z,-5.24
2019-01-23T14:53:09.613Z,-5.26
2019-01-23T14:55:39.225Z,-5.25
2019-01-23T14:58:08.873Z,-5.28
2019-01-23T15:00:38.791Z,-5.30
2019-01-23T15:03:08.447Z,-5.29
2019-01-23T15:05:37.990Z,-5.37
2019-01-23T15:08:09.043Z,-5.40
2019-01-23T15:10:38.590Z,-5.44
2019-01-23T15:13:08.423Z,-5.46
2019-01-23T15:15:38.108Z,-5.47
2019-01-23T15:18:07.922Z,-5.49
2019-01-23T15:20:39.297Z,-5.50
2019-01-23T15:23:08.874Z,-5.52
2019-01-23T15:25:38.513Z,-5.51
2019-01-23T15:28:08.324Z,-5.51
2019-01-23T15:30:37.977Z,-5.49
2019-01-23T15:33:07.757Z,-5.45
2019-01-23T15:35:37.264Z,-5.40
2019-01-23T15:38:06.931Z,-5.35
2019-01-23T15:40:36.881Z,-5.30
2019-01-23T15:43:06.649Z,-5.25
2019-01-23T15:45:36.226Z,-5.23
2019-01-23T15:48:06.106Z,-5.21
2019-01-23T15:50:35.723Z,-5.22
2019-01-23T15:53:05.413Z,-5.24
2019-01-23T15:55:35.065Z,-5.25
2019-01-23T15:58:04.951Z,-5.28
2019-01-23T16:00:34.721Z,-5.28
2019-01-23T16:03:04.771Z,-5.27
2019-01-23T16:05:34.373Z,-5.26
2019-01-23T16:08:03.923Z,-5.24
2019-01-23T16:10:33.482Z,-5.22
2019-01-23T16:13:03.175Z,-5.21
2019-01-23T16:15:33.913Z,-5.20
2019-01-23T16:18:03.667Z,-5.17
2019-01-23T16:20:33.352Z,-5.16
2019-01-23T16:23:03.175Z,-5.18
2019-01-23T16:25:32.773Z,-5.21
2019-01-23T16:28:02.322Z,-5.23
2019-01-23T16:30:38.808Z,-5.23
2019-01-23T16:33:08.439Z,-5.23
2019-01-23T16:35:38.640Z,-5.22
2019-01-23T16:38:09.150Z,-5.22
2019-01-23T16:40:38.724Z,-5.21
2019-01-23T16:43:08.367Z,-5.17
2019-01-23T16:45:37.995Z,-5.14
2019-01-23T16:48:07.647Z,-5.10
2019-01-23T16:50:37.262Z,-5.10
2019-01-23T16:53:07.085Z,-5.14
2019-01-23T16:55:36.800Z,-5.17
2019-01-23T16:58:07.452Z,-5.17
2019-01-23T17:00:37.430Z,-5.18
2019-01-23T17:03:07.485Z,-5.19
2019-01-23T17:05:37.275Z,-5.19
2019-01-23T17:08:07.684Z,-5.16
2019-01-23T17:10:37.303Z,-5.12
2019-01-23T17:13:07.368Z,-5.12
2019-01-23T17:15:36.962Z,-5.10
2019-01-23T17:18:06.930Z,-5.10
2019-01-23T17:20:43.222Z,-5.09
2019-01-23T17:23:12.924Z,-5.06
2019-01-23T17:25:42.556Z,-5.04
2019-01-23T17:28:14.181Z,-5.03
2019-01-23T17:30:43.825Z,-5.03
2019-01-23T17:33:13.520Z,-5.04
2019-01-23T17:35:43.211Z,-5.06
2019-01-23T17:38:12.925Z,-5.06
2019-01-23T17:40:42.569Z,-5.03
2019-01-23T17:43:13.482Z,-5.02
2019-01-23T17:45:43.190Z,-4.99
2019-01-23T17:48:14.622Z,-4.99
2019-01-23T17:50:44.254Z,-4.97
2019-01-23T17:53:13.789Z,-4.94
2019-01-23T17:55:43.359Z,-4.93
2019-01-23T17:58:13.180Z,-4.89
2019-01-23T18:00:44.668Z,-4.88
2019-01-23T18:03:14.211Z,-4.86
2019-01-23T18:05:43.845Z,-4.89
2019-01-23T18:08:13.388Z,-4.91
2019-01-23T18:10:42.941Z,-4.91
2019-01-23T18:13:12.602Z,-4.90
2019-01-23T18:15:42.987Z,-4.87
2019-01-23T18:18:13.809Z,-4.86
2019-01-23T18:20:43.346Z,-4.85
2019-01-23T18:23:12.919Z,-4.83
2019-01-23T18:25:42.609Z,-4.81
2019-01-23T18:28:12.169Z,-4.80
2019-01-23T18:30:55.541Z,-4.79
2019-01-23T18:33:32.610Z,-4.78
2019-01-23T18:36:09.512Z,-4.74
2019-01-23T18:38:46.717Z,-4.72
2019-01-23T18:41:47.801Z,-4.71
2019-01-23T18:44:33.937Z,-4.66
2019-01-23T18:47:30.431Z,-4.64
2019-01-23T18:50:30.154Z,-4.61
2019-01-23T18:52:59.736Z,-4.60
2019-01-23T18:55:29.290Z,-4.61
2019-01-23T18:57:58.833Z,-4.60
2019-01-23T19:00:28.652Z,-4.60
2019-01-23T19:02:58.286Z,-4.56
2019-01-23T19:05:28.576Z,-4.54
2019-01-23T19:07:58.127Z,-4.53
2019-01-23T19:10:27.697Z,-4.53
2019-01-23T19:12:57.266Z,-4.53
2019-01-23T19:15:26.883Z,-4.55
2019-01-23T19:17:56.460Z,-4.54
2019-01-23T19:20:26.073Z,-4.55
2019-01-23T19:22:55.620Z,-4.54
2019-01-23T19:25:25.270Z,-4.52
2019-01-23T19:27:54.828Z,-4.51
2019-01-23T19:30:24.738Z,-4.52
2019-01-23T19:32:54.311Z,-4.54
2019-01-23T19:35:23.893Z,-4.55
2019-01-23T19:37:53.486Z,-4.57
2019-01-23T19:40:23.101Z,-4.56
2019-01-23T19:42:52.654Z,-4.57
2019-01-23T19:45:22.862Z,-4.62
2019-01-23T19:47:52.469Z,-4.62
2019-01-23T19:50:22.160Z,-4.65
2019-01-23T19:52:51.716Z,-4.67
2019-01-23T19:55:21.406Z,-4.68
2019-01-23T19:57:51.846Z,-4.64
2019-01-23T20:00:22.806Z,-4.62
2019-01-23T20:02:52.399Z,-4.63
2019-01-23T20:05:25.262Z,-4.61
2019-01-23T20:07:55.067Z,-4.58
2019-01-23T20:10:25.883Z,-4.55
2019-01-23T20:12:55.574Z,-4.52
2019-01-23T20:15:25.291Z,-4.48
2019-01-23T20:17:56.655Z,-4.42
2019-01-23T20:20:26.217Z,-4.36
2019-01-23T20:22:55.793Z,-4.31
2019-01-23T20:25:26.895Z,-4.28
2019-01-23T20:27:56.836Z,-4.25
2019-01-23T20:30:33.803Z,-4.22
2019-01-23T20:33:03.550Z,-4.20
2019-01-23T20:35:33.108Z,-4.16
2019-01-23T20:38:02.650Z,-4.15
2019-01-23T20:40:32.223Z,-4.13
2019-01-23T20:43:01.768Z,-4.12
2019-01-23T20:45:31.372Z,-4.08
2019-01-23T20:48:00.920Z,-4.06
2019-01-23T20:50:31.814Z,-4.02
2019-01-23T20:53:01.529Z,-3.97
2019-01-23T20:55:31.079Z,-3.93
2019-01-23T20:58:00.730Z,-3.87
2019-01-23T21:00:33.360Z,-3.85
2019-01-23T21:03:02.911Z,-3.82
2019-01-23T21:05:32.480Z,-3.79
2019-01-23T21:08:02.021Z,-3.77
2019-01-23T21:10:31.593Z,-3.74
2019-01-23T21:13:01.146Z,-3.73
2019-01-23T21:15:31.848Z,-3.71
2019-01-23T21:18:01.557Z,-3.70
2019-01-23T21:20:31.850Z,-3.69
2019-01-23T21:23:01.509Z,-3.68
2019-01-23T21:25:31.054Z,-3.68
2019-01-23T21:28:00.602Z,-3.65
2019-01-23T21:30:30.175Z,-3.61
2019-01-23T21:32:59.716Z,-3.56
2019-01-23T21:35:29.292Z,-3.52
2019-01-23T21:37:58.900Z,-3.50
2019-01-23T21:40:31.261Z,-3.48
2019-01-23T21:43:02.720Z,-3.48
2019-01-23T21:45:32.637Z,-3.47
2019-01-23T21:48:02.281Z,-3.46
2019-01-23T21:50:31.834Z,-3.46
2019-01-23T21:53:01.482Z,-3.45
2019-01-23T21:55:31.123Z,-3.45
2019-01-23T21:58:00.669Z,-3.44
2019-01-23T22:00:37.324Z,-3.43
2019-01-23T22:03:09.788Z,-3.40
2019-01-23T22:05:39.502Z,-3.38
2019-01-23T22:08:10.317Z,-3.36
2019-01-23T22:10:39.894Z,-3.33
2019-01-23T22:13:09.441Z,-3.30
2019-01-23T22:15:38.992Z,-3.28
2019-01-23T22:18:09.103Z,-3.27
2019-01-23T22:20:38.746Z,-3.26
2019-01-23T22:23:08.719Z,-3.25
2019-01-23T22:25:38.261Z,-3.23
2019-01-23T22:28:07.948Z,-3.21
2019-01-23T22:30:37.538Z,-3.21
2019-01-23T22:33:07.219Z,-3.20
2019-01-23T22:35:36.795Z,-3.18
2019-01-23T22:38:06.788Z,-3.17
2019-01-23T22:40:36.366Z,-3.15
2019-01-23T22:43:06.091Z,-3.15
2019-01-23T22:45:35.632Z,-3.14
2019-01-23T22:48:06.238Z,-3.12
2019-01-23T22:50:35.790Z,-3.10
2019-01-23T22:53:05.932Z,-3.08
2019-01-23T22:55:35.478Z,-3.05
2019-01-23T22:58:05.606Z,-3.04
2019-01-23T23:00:42.901Z,-3.06
2019-01-23T23:03:14.882Z,-3.04
2019-01-23T23:05:44.506Z,-3.02
2019-01-23T23:08:14.395Z,-3.01
2019-01-23T23:10:44.041Z,-2.99
2019-01-23T23:13:13.670Z,-2.97
2019-01-23T23:15:43.316Z,-2.97
2019-01-23T23:18:12.975Z,-2.97
2019-01-23T23:20:42.521Z,-2.96
2019-01-23T23:23:12.141Z,-2.96
2019-01-23T23:25:41.934Z,-2.93
2019-01-23T23:28:11.568Z,-2.91
2019-01-23T23:30:41.128Z,-2.88
2019-01-23T23:33:10.703Z,-2.88
2019-01-23T23:35:40.253Z,-2.88
2019-01-23T23:38:10.299Z,-2.87
2019-01-23T23:40:39.846Z,-2.86
2019-01-23T23:43:09.395Z,-2.85
2019-01-23T23:45:39.037Z,-2.85
2019-01-23T23:48:08.656Z,-2.84
2019-01-23T23:50:38.228Z,-2.83
2019-01-23T23:53:07.782Z,-2.82
2019-01-23T23:55:37.460Z,-2.81
2019-01-23T23:58:07.028Z,-2.82
